sensor_id;sensor_type;location;lat;lon;timestamp;P1;durP1;ratioP1;P2;durP2;ratioP2
21038;SDS011;10678;51.002;4.786;2023-02-15T00:01:44;52.27;;;26.93;;
21038;SDS011;10678;51.002;4.786;2023-02-15T00:04:12;53.37;;;27.03;;
21038;SDS011;10678;51.002;4.786;2023-02-15T00:06:39;50.37;;;25.50;;
21038;SDS011;10678;51.002;4.786;2023-02-15T00:09:05;59.10;;;25.80;;
21038;SDS011;10678;51.002;4.786;2023-02-15T00:11:30;56.03;;;25.33;;
21038;SDS011;10678;51.002;4.786;2023-02-15T00:14:09;47.83;;;23.87;;
21038;SDS011;10678;51.002;4.786;2023-02-15T00:16:36;47.57;;;25.03;;
21038;SDS011;10678;51.002;4.786;2023-02-15T00:19:03;46.20;;;24.03;;
21038;SDS011;10678;51.002;4.786;2023-02-15T00:21:30;50.63;;;25.87;;
21038;SDS011;10678;51.002;4.786;2023-02-15T00:23:57;51.67;;;23.43;;
21038;SDS011;10678;51.002;4.786;2023-02-15T00:26:24;58.30;;;24.37;;
21038;SDS011;10678;51.002;4.786;2023-02-15T00:28:50;50.97;;;24.27;;
21038;SDS011;10678;51.002;4.786;2023-02-15T00:31:16;48.57;;;23.00;;
21038;SDS011;10678;51.002;4.786;2023-02-15T00:33:42;62.17;;;24.23;;
21038;SDS011;10678;51.002;4.786;2023-02-15T00:36:08;48.03;;;23.97;;
21038;SDS011;10678;51.002;4.786;2023-02-15T00:38:35;50.57;;;25.10;;
21038;SDS011;10678;51.002;4.786;2023-02-15T00:41:02;55.03;;;25.67;;
21038;SDS011;10678;51.002;4.786;2023-02-15T00:43:29;44.50;;;24.10;;
21038;SDS011;10678;51.002;4.786;2023-02-15T00:45:56;47.80;;;24.17;;
21038;SDS011;10678;51.002;4.786;2023-02-15T00:48:22;44.80;;;23.13;;
21038;SDS011;10678;51.002;4.786;2023-02-15T00:50:49;45.93;;;23.60;;
21038;SDS011;10678;51.002;4.786;2023-02-15T00:53:16;48.60;;;22.57;;
21038;SDS011;10678;51.002;4.786;2023-02-15T00:55:42;47.13;;;23.17;;
21038;SDS011;10678;51.002;4.786;2023-02-15T00:58:08;46.73;;;23.60;;
21038;SDS011;10678;51.002;4.786;2023-02-15T01:00:34;46.00;;;23.33;;
21038;SDS011;10678;51.002;4.786;2023-02-15T01:03:01;46.80;;;22.80;;
21038;SDS011;10678;51.002;4.786;2023-02-15T01:05:26;49.17;;;22.60;;
21038;SDS011;10678;51.002;4.786;2023-02-15T01:07:52;48.10;;;23.23;;
21038;SDS011;10678;51.002;4.786;2023-02-15T01:10:18;48.87;;;24.47;;
21038;SDS011;10678;51.002;4.786;2023-02-15T01:12:43;50.20;;;24.27;;
21038;SDS011;10678;51.002;4.786;2023-02-15T01:15:09;50.47;;;25.70;;
21038;SDS011;10678;51.002;4.786;2023-02-15T01:17:35;46.37;;;25.00;;
21038;SDS011;10678;51.002;4.786;2023-02-15T01:20:00;48.43;;;24.23;;
21038;SDS011;10678;51.002;4.786;2023-02-15T01:22:26;50.30;;;24.57;;
21038;SDS011;10678;51.002;4.786;2023-02-15T01:24:52;50.73;;;24.50;;
21038;SDS011;10678;51.002;4.786;2023-02-15T01:27:17;51.07;;;25.83;;
21038;SDS011;10678;51.002;4.786;2023-02-15T01:29:43;42.07;;;23.17;;
21038;SDS011;10678;51.002;4.786;2023-02-15T01:32:08;46.83;;;24.20;;
21038;SDS011;10678;51.002;4.786;2023-02-15T01:34:34;50.43;;;25.23;;
21038;SDS011;10678;51.002;4.786;2023-02-15T01:37:00;52.97;;;25.70;;
21038;SDS011;10678;51.002;4.786;2023-02-15T01:39:25;49.80;;;24.80;;
21038;SDS011;10678;51.002;4.786;2023-02-15T01:41:51;51.07;;;26.90;;
21038;SDS011;10678;51.002;4.786;2023-02-15T01:44:40;47.03;;;24.40;;
21038;SDS011;10678;51.002;4.786;2023-02-15T01:55:23;46.07;;;23.77;;
21038;SDS011;10678;51.002;4.786;2023-02-15T01:57:53;45.33;;;23.13;;
21038;SDS011;10678;51.002;4.786;2023-02-15T02:00:19;49.70;;;23.13;;
21038;SDS011;10678;51.002;4.786;2023-02-15T02:02:45;54.37;;;25.57;;
21038;SDS011;10678;51.002;4.786;2023-02-15T02:05:12;48.43;;;24.57;;
21038;SDS011;10678;51.002;4.786;2023-02-15T02:07:39;47.60;;;23.77;;
21038;SDS011;10678;51.002;4.786;2023-02-15T02:10:10;50.17;;;24.97;;
21038;SDS011;10678;51.002;4.786;2023-02-15T02:12:39;46.50;;;23.20;;
21038;SDS011;10678;51.002;4.786;2023-02-15T02:15:07;42.63;;;21.50;;
21038;SDS011;10678;51.002;4.786;2023-02-15T02:20:22;46.77;;;22.40;;
21038;SDS011;10678;51.002;4.786;2023-02-15T02:26:12;50.87;;;24.77;;
21038;SDS011;10678;51.002;4.786;2023-02-15T02:40:03;50.00;;;24.23;;
21038;SDS011;10678;51.002;4.786;2023-02-15T02:45:16;47.27;;;23.23;;
21038;SDS011;10678;51.002;4.786;2023-02-15T02:47:55;43.73;;;22.37;;
21038;SDS011;10678;51.002;4.786;2023-02-15T02:50:29;41.30;;;22.50;;
21038;SDS011;10678;51.002;4.786;2023-02-15T02:52:55;41.40;;;21.53;;
21038;SDS011;10678;51.002;4.786;2023-02-15T02:55:23;53.13;;;23.83;;
21038;SDS011;10678;51.002;4.786;2023-02-15T02:58:06;40.03;;;22.57;;
21038;SDS011;10678;51.002;4.786;2023-02-15T03:00:45;46.30;;;21.23;;
21038;SDS011;10678;51.002;4.786;2023-02-15T03:05:53;48.43;;;22.57;;
21038;SDS011;10678;51.002;4.786;2023-02-15T03:08:21;49.67;;;23.63;;
21038;SDS011;10678;51.002;4.786;2023-02-15T03:10:53;46.43;;;24.07;;
21038;SDS011;10678;51.002;4.786;2023-02-15T03:13:20;46.10;;;23.57;;
21038;SDS011;10678;51.002;4.786;2023-02-15T03:15:47;45.70;;;23.53;;
21038;SDS011;10678;51.002;4.786;2023-02-15T03:18:35;50.53;;;24.83;;
21038;SDS011;10678;51.002;4.786;2023-02-15T03:21:09;47.63;;;23.97;;
21038;SDS011;10678;51.002;4.786;2023-02-15T03:23:47;47.60;;;23.90;;
21038;SDS011;10678;51.002;4.786;2023-02-15T03:26:22;44.27;;;22.63;;
21038;SDS011;10678;51.002;4.786;2023-02-15T03:28:50;51.00;;;25.93;;
21038;SDS011;10678;51.002;4.786;2023-02-15T03:31:20;51.77;;;25.73;;
21038;SDS011;10678;51.002;4.786;2023-02-15T03:33:53;44.47;;;24.60;;
21038;SDS011;10678;51.002;4.786;2023-02-15T03:36:43;50.03;;;23.43;;
21038;SDS011;10678;51.002;4.786;2023-02-15T03:42:10;44.23;;;23.73;;
21038;SDS011;10678;51.002;4.786;2023-02-15T03:44:49;50.50;;;24.63;;
21038;SDS011;10678;51.002;4.786;2023-02-15T03:47:30;53.13;;;24.70;;
21038;SDS011;10678;51.002;4.786;2023-02-15T03:50:09;46.63;;;23.23;;
21038;SDS011;10678;51.002;4.786;2023-02-15T03:52:58;45.13;;;22.23;;
21038;SDS011;10678;51.002;4.786;2023-02-15T03:55:27;43.57;;;21.00;;
21038;SDS011;10678;51.002;4.786;2023-02-15T03:57:53;46.90;;;23.80;;
21038;SDS011;10678;51.002;4.786;2023-02-15T04:00:37;41.10;;;21.83;;
21038;SDS011;10678;51.002;4.786;2023-02-15T04:06:12;42.30;;;22.77;;
21038;SDS011;10678;51.002;4.786;2023-02-15T04:08:38;40.57;;;21.47;;
21038;SDS011;10678;51.002;4.786;2023-02-15T04:11:22;41.57;;;21.77;;
21038;SDS011;10678;51.002;4.786;2023-02-15T04:13:47;52.77;;;23.47;;
21038;SDS011;10678;51.002;4.786;2023-02-15T04:16:22;46.47;;;21.90;;
21038;SDS011;10678;51.002;4.786;2023-02-15T04:18:48;52.27;;;24.47;;
21038;SDS011;10678;51.002;4.786;2023-02-15T04:21:32;43.80;;;21.70;;
21038;SDS011;10678;51.002;4.786;2023-02-15T04:24:16;53.67;;;24.60;;
21038;SDS011;10678;51.002;4.786;2023-02-15T04:27:01;48.33;;;24.07;;
21038;SDS011;10678;51.002;4.786;2023-02-15T04:29:28;47.13;;;24.23;;
21038;SDS011;10678;51.002;4.786;2023-02-15T04:31:54;47.33;;;25.93;;
21038;SDS011;10678;51.002;4.786;2023-02-15T04:34:21;42.27;;;21.20;;
21038;SDS011;10678;51.002;4.786;2023-02-15T04:36:47;49.47;;;23.13;;
21038;SDS011;10678;51.002;4.786;2023-02-15T04:39:13;51.40;;;23.13;;
21038;SDS011;10678;51.002;4.786;2023-02-15T04:41:39;50.77;;;23.33;;
21038;SDS011;10678;51.002;4.786;2023-02-15T04:44:05;51.47;;;24.60;;
21038;SDS011;10678;51.002;4.786;2023-02-15T04:46:31;50.97;;;25.10;;
21038;SDS011;10678;51.002;4.786;2023-02-15T04:48:57;53.00;;;24.77;;
21038;SDS011;10678;51.002;4.786;2023-02-15T04:51:22;50.30;;;24.40;;
21038;SDS011;10678;51.002;4.786;2023-02-15T04:53:48;50.10;;;24.23;;
21038;SDS011;10678;51.002;4.786;2023-02-15T04:56:14;53.27;;;23.40;;
21038;SDS011;10678;51.002;4.786;2023-02-15T04:58:39;48.13;;;22.63;;
21038;SDS011;10678;51.002;4.786;2023-02-15T05:01:06;47.13;;;23.23;;
21038;SDS011;10678;51.002;4.786;2023-02-15T05:03:32;43.27;;;22.73;;
21038;SDS011;10678;51.002;4.786;2023-02-15T05:05:58;45.53;;;22.07;;
21038;SDS011;10678;51.002;4.786;2023-02-15T05:08:23;48.77;;;24.13;;
21038;SDS011;10678;51.002;4.786;2023-02-15T05:10:49;52.53;;;24.60;;
21038;SDS011;10678;51.002;4.786;2023-02-15T05:13:15;46.60;;;22.27;;
21038;SDS011;10678;51.002;4.786;2023-02-15T05:15:41;48.43;;;23.43;;
21038;SDS011;10678;51.002;4.786;2023-02-15T05:18:06;47.53;;;23.80;;
21038;SDS011;10678;51.002;4.786;2023-02-15T05:20:32;45.40;;;23.10;;
21038;SDS011;10678;51.002;4.786;2023-02-15T05:22:58;50.30;;;23.30;;
21038;SDS011;10678;51.002;4.786;2023-02-15T05:25:23;46.27;;;22.27;;
21038;SDS011;10678;51.002;4.786;2023-02-15T05:28:09;46.37;;;22.73;;
21038;SDS011;10678;51.002;4.786;2023-02-15T05:30:44;51.67;;;24.73;;
21038;SDS011;10678;51.002;4.786;2023-02-15T05:33:11;46.70;;;22.90;;
21038;SDS011;10678;51.002;4.786;2023-02-15T05:35:36;44.20;;;20.93;;
21038;SDS011;10678;51.002;4.786;2023-02-15T05:38:02;43.87;;;22.33;;
21038;SDS011;10678;51.002;4.786;2023-02-15T05:40:28;42.07;;;21.90;;
21038;SDS011;10678;51.002;4.786;2023-02-15T05:42:53;59.40;;;21.90;;
21038;SDS011;10678;51.002;4.786;2023-02-15T05:45:19;42.67;;;21.33;;
21038;SDS011;10678;51.002;4.786;2023-02-15T05:47:44;48.23;;;21.50;;
21038;SDS011;10678;51.002;4.786;2023-02-15T05:50:11;46.57;;;21.83;;
21038;SDS011;10678;51.002;4.786;2023-02-15T05:52:36;44.37;;;22.83;;
21038;SDS011;10678;51.002;4.786;2023-02-15T05:55:02;46.07;;;22.20;;
21038;SDS011;10678;51.002;4.786;2023-02-15T05:57:29;46.17;;;21.00;;
21038;SDS011;10678;51.002;4.786;2023-02-15T05:59:54;44.77;;;22.50;;
21038;SDS011;10678;51.002;4.786;2023-02-15T06:02:20;46.47;;;23.47;;
21038;SDS011;10678;51.002;4.786;2023-02-15T06:04:46;39.47;;;21.00;;
21038;SDS011;10678;51.002;4.786;2023-02-15T06:07:11;49.77;;;21.87;;
21038;SDS011;10678;51.002;4.786;2023-02-15T06:09:37;48.33;;;22.17;;
21038;SDS011;10678;51.002;4.786;2023-02-15T06:12:02;47.97;;;22.50;;
21038;SDS011;10678;51.002;4.786;2023-02-15T06:14:28;42.13;;;21.30;;
21038;SDS011;10678;51.002;4.786;2023-02-15T06:16:54;41.23;;;21.43;;
21038;SDS011;10678;51.002;4.786;2023-02-15T06:19:19;48.30;;;22.60;;
21038;SDS011;10678;51.002;4.786;2023-02-15T06:21:45;42.70;;;22.40;;
21038;SDS011;10678;51.002;4.786;2023-02-15T06:24:11;45.33;;;22.33;;
21038;SDS011;10678;51.002;4.786;2023-02-15T06:26:37;50.17;;;24.47;;
21038;SDS011;10678;51.002;4.786;2023-02-15T06:29:03;43.37;;;22.27;;
21038;SDS011;10678;51.002;4.786;2023-02-15T06:31:28;43.90;;;23.17;;
21038;SDS011;10678;51.002;4.786;2023-02-15T06:33:54;52.67;;;24.00;;
21038;SDS011;10678;51.002;4.786;2023-02-15T06:36:26;49.80;;;23.40;;
21038;SDS011;10678;51.002;4.786;2023-02-15T06:38:52;46.10;;;22.17;;
21038;SDS011;10678;51.002;4.786;2023-02-15T06:41:18;43.30;;;22.27;;
21038;SDS011;10678;51.002;4.786;2023-02-15T06:43:43;52.43;;;23.73;;
21038;SDS011;10678;51.002;4.786;2023-02-15T06:46:09;45.47;;;22.80;;
21038;SDS011;10678;51.002;4.786;2023-02-15T06:48:34;45.60;;;22.90;;
21038;SDS011;10678;51.002;4.786;2023-02-15T06:51:00;52.80;;;25.30;;
21038;SDS011;10678;51.002;4.786;2023-02-15T06:53:26;44.80;;;23.20;;
21038;SDS011;10678;51.002;4.786;2023-02-15T06:55:51;51.13;;;24.73;;
21038;SDS011;10678;51.002;4.786;2023-02-15T06:58:17;51.13;;;25.13;;
21038;SDS011;10678;51.002;4.786;2023-02-15T07:00:43;48.90;;;24.43;;
21038;SDS011;10678;51.002;4.786;2023-02-15T07:03:08;53.20;;;24.70;;
21038;SDS011;10678;51.002;4.786;2023-02-15T07:05:34;44.70;;;24.30;;
21038;SDS011;10678;51.002;4.786;2023-02-15T07:08:00;50.13;;;23.97;;
21038;SDS011;10678;51.002;4.786;2023-02-15T07:10:26;54.27;;;25.97;;
21038;SDS011;10678;51.002;4.786;2023-02-15T07:12:52;60.27;;;28.13;;
21038;SDS011;10678;51.002;4.786;2023-02-15T07:15:18;58.10;;;28.67;;
21038;SDS011;10678;51.002;4.786;2023-02-15T07:17:45;60.13;;;26.17;;
21038;SDS011;10678;51.002;4.786;2023-02-15T07:20:13;51.27;;;25.50;;
21038;SDS011;10678;51.002;4.786;2023-02-15T07:22:46;47.53;;;23.67;;
21038;SDS011;10678;51.002;4.786;2023-02-15T07:25:12;55.37;;;25.43;;
21038;SDS011;10678;51.002;4.786;2023-02-15T07:27:39;59.13;;;25.20;;
21038;SDS011;10678;51.002;4.786;2023-02-15T07:30:05;49.73;;;25.87;;
21038;SDS011;10678;51.002;4.786;2023-02-15T07:32:33;53.40;;;26.10;;
21038;SDS011;10678;51.002;4.786;2023-02-15T07:34:59;55.23;;;26.93;;
21038;SDS011;10678;51.002;4.786;2023-02-15T07:37:26;61.43;;;26.87;;
21038;SDS011;10678;51.002;4.786;2023-02-15T07:39:52;65.40;;;26.90;;
21038;SDS011;10678;51.002;4.786;2023-02-15T07:42:18;52.93;;;26.03;;
21038;SDS011;10678;51.002;4.786;2023-02-15T07:44:45;56.20;;;27.67;;
21038;SDS011;10678;51.002;4.786;2023-02-15T07:47:10;56.10;;;27.33;;
21038;SDS011;10678;51.002;4.786;2023-02-15T07:49:37;57.63;;;28.73;;
21038;SDS011;10678;51.002;4.786;2023-02-15T07:52:03;51.97;;;26.57;;
21038;SDS011;10678;51.002;4.786;2023-02-15T07:54:29;55.17;;;27.77;;
21038;SDS011;10678;51.002;4.786;2023-02-15T07:56:54;57.30;;;28.07;;
21038;SDS011;10678;51.002;4.786;2023-02-15T07:59:20;53.77;;;26.33;;
21038;SDS011;10678;51.002;4.786;2023-02-15T08:01:46;52.47;;;26.73;;
21038;SDS011;10678;51.002;4.786;2023-02-15T08:04:11;51.70;;;26.27;;
21038;SDS011;10678;51.002;4.786;2023-02-15T08:06:37;54.23;;;28.73;;
21038;SDS011;10678;51.002;4.786;2023-02-15T08:09:04;57.67;;;28.00;;
21038;SDS011;10678;51.002;4.786;2023-02-15T08:11:33;58.33;;;25.47;;
21038;SDS011;10678;51.002;4.786;2023-02-15T08:16:36;58.17;;;25.73;;
21038;SDS011;10678;51.002;4.786;2023-02-15T08:19:07;54.13;;;25.30;;
21038;SDS011;10678;51.002;4.786;2023-02-15T08:21:35;46.33;;;24.53;;
21038;SDS011;10678;51.002;4.786;2023-02-15T08:24:03;47.60;;;24.50;;
21038;SDS011;10678;51.002;4.786;2023-02-15T08:26:29;46.10;;;25.33;;
21038;SDS011;10678;51.002;4.786;2023-02-15T08:28:55;50.77;;;23.90;;
21038;SDS011;10678;51.002;4.786;2023-02-15T08:31:23;42.63;;;25.20;;
21038;SDS011;10678;51.002;4.786;2023-02-15T08:33:49;42.20;;;23.63;;
21038;SDS011;10678;51.002;4.786;2023-02-15T08:36:17;41.83;;;23.30;;
21038;SDS011;10678;51.002;4.786;2023-02-15T08:38:44;43.27;;;22.83;;
21038;SDS011;10678;51.002;4.786;2023-02-15T08:43:47;42.50;;;23.80;;
21038;SDS011;10678;51.002;4.786;2023-02-15T08:46:16;40.50;;;22.27;;
21038;SDS011;10678;51.002;4.786;2023-02-15T08:48:42;36.73;;;22.00;;
21038;SDS011;10678;51.002;4.786;2023-02-15T08:51:12;39.23;;;21.03;;
21038;SDS011;10678;51.002;4.786;2023-02-15T08:53:40;37.13;;;21.57;;
21038;SDS011;10678;51.002;4.786;2023-02-15T08:56:07;40.90;;;21.87;;
21038;SDS011;10678;51.002;4.786;2023-02-15T08:58:33;40.70;;;23.10;;
21038;SDS011;10678;51.002;4.786;2023-02-15T09:01:00;44.53;;;23.83;;
21038;SDS011;10678;51.002;4.786;2023-02-15T09:03:27;45.83;;;24.88;;
21038;SDS011;10678;51.002;4.786;2023-02-15T09:05:57;41.00;;;23.80;;
21038;SDS011;10678;51.002;4.786;2023-02-15T09:08:25;47.70;;;25.35;;
21038;SDS011;10678;51.002;4.786;2023-02-15T09:10:51;47.90;;;24.88;;
21038;SDS011;10678;51.002;4.786;2023-02-15T09:13:16;48.55;;;26.55;;
21038;SDS011;10678;51.002;4.786;2023-02-15T09:15:42;42.45;;;24.40;;
21038;SDS011;10678;51.002;4.786;2023-02-15T09:18:08;37.83;;;23.83;;
21038;SDS011;10678;51.002;4.786;2023-02-15T09:20:36;38.97;;;23.58;;
21038;SDS011;10678;51.002;4.786;2023-02-15T09:23:02;43.22;;;23.52;;
21038;SDS011;10678;51.002;4.786;2023-02-15T09:25:28;38.40;;;21.80;;
21038;SDS011;10678;51.002;4.786;2023-02-15T09:27:53;33.92;;;20.00;;
21038;SDS011;10678;51.002;4.786;2023-02-15T09:30:19;35.63;;;19.40;;
21038;SDS011;10678;51.002;4.786;2023-02-15T09:32:45;34.92;;;18.65;;
21038;SDS011;10678;51.002;4.786;2023-02-15T09:35:13;31.20;;;19.60;;
21038;SDS011;10678;51.002;4.786;2023-02-15T09:37:39;33.88;;;19.77;;
21038;SDS011;10678;51.002;4.786;2023-02-15T09:40:04;35.28;;;21.13;;
21038;SDS011;10678;51.002;4.786;2023-02-15T09:42:46;34.55;;;19.17;;
21038;SDS011;10678;51.002;4.786;2023-02-15T09:48:07;32.53;;;18.48;;
21038;SDS011;10678;51.002;4.786;2023-02-15T09:50:53;32.55;;;19.67;;
21038;SDS011;10678;51.002;4.786;2023-02-15T09:55:57;27.75;;;16.98;;
21038;SDS011;10678;51.002;4.786;2023-02-15T09:58:46;25.95;;;17.05;;
21038;SDS011;10678;51.002;4.786;2023-02-15T10:01:24;30.80;;;18.10;;
21038;SDS011;10678;51.002;4.786;2023-02-15T10:09:39;27.92;;;16.85;;
21038;SDS011;10678;51.002;4.786;2023-02-15T10:17:52;29.42;;;17.13;;
21038;SDS011;10678;51.002;4.786;2023-02-15T10:20:43;29.92;;;17.90;;
21038;SDS011;10678;51.002;4.786;2023-02-15T10:28:47;26.92;;;16.67;;
21038;SDS011;10678;51.002;4.786;2023-02-15T10:34:19;29.65;;;16.33;;
21038;SDS011;10678;51.002;4.786;2023-02-15T10:39:51;26.20;;;15.52;;
21038;SDS011;10678;51.002;4.786;2023-02-15T10:48:16;27.13;;;15.68;;
21038;SDS011;10678;51.002;4.786;2023-02-15T10:50:50;27.00;;;15.07;;
21038;SDS011;10678;51.002;4.786;2023-02-15T10:58:58;34.40;;;16.95;;
21038;SDS011;10678;51.002;4.786;2023-02-15T11:06:42;35.35;;;17.13;;
21038;SDS011;10678;51.002;4.786;2023-02-15T11:09:13;33.15;;;16.83;;
21038;SDS011;10678;51.002;4.786;2023-02-15T11:11:43;37.28;;;17.98;;
21038;SDS011;10678;51.002;4.786;2023-02-15T11:17:18;31.67;;;16.48;;
21038;SDS011;10678;51.002;4.786;2023-02-15T11:20:04;32.95;;;17.33;;
21038;SDS011;10678;51.002;4.786;2023-02-15T11:22:41;29.05;;;16.83;;
21038;SDS011;10678;51.002;4.786;2023-02-15T11:25:53;33.63;;;19.33;;
21038;SDS011;10678;51.002;4.786;2023-02-15T11:27:55;30.40;;;17.50;;
21038;SDS011;10678;51.002;4.786;2023-02-15T11:30:22;31.08;;;17.98;;
21038;SDS011;10678;51.002;4.786;2023-02-15T11:32:53;28.05;;;18.02;;
21038;SDS011;10678;51.002;4.786;2023-02-15T11:35:35;28.70;;;17.83;;
21038;SDS011;10678;51.002;4.786;2023-02-15T11:38:24;31.10;;;18.27;;
21038;SDS011;10678;51.002;4.786;2023-02-15T11:40:55;29.88;;;18.15;;
21038;SDS011;10678;51.002;4.786;2023-02-15T11:43:39;24.60;;;16.77;;
21038;SDS011;10678;51.002;4.786;2023-02-15T11:46:14;26.15;;;17.58;;
21038;SDS011;10678;51.002;4.786;2023-02-15T11:48:40;29.67;;;18.88;;
21038;SDS011;10678;51.002;4.786;2023-02-15T11:51:16;27.23;;;18.05;;
21038;SDS011;10678;51.002;4.786;2023-02-15T11:53:45;27.90;;;18.05;;
21038;SDS011;10678;51.002;4.786;2023-02-15T11:56:30;27.42;;;17.30;;
21038;SDS011;10678;51.002;4.786;2023-02-15T11:59:06;28.90;;;18.95;;
21038;SDS011;10678;51.002;4.786;2023-02-15T12:01:38;28.92;;;18.95;;
21038;SDS011;10678;51.002;4.786;2023-02-15T12:06:59;28.80;;;17.90;;
21038;SDS011;10678;51.002;4.786;2023-02-15T12:12:23;28.30;;;18.00;;
21038;SDS011;10678;51.002;4.786;2023-02-15T12:14:55;34.22;;;18.20;;
21038;SDS011;10678;51.002;4.786;2023-02-15T12:17:29;28.77;;;18.38;;
21038;SDS011;10678;51.002;4.786;2023-02-15T12:19:59;31.50;;;19.55;;
21038;SDS011;10678;51.002;4.786;2023-02-15T12:22:34;28.80;;;18.17;;
21038;SDS011;10678;51.002;4.786;2023-02-15T12:25:03;37.00;;;19.33;;
21038;SDS011;10678;51.002;4.786;2023-02-15T12:27:44;33.17;;;20.25;;
21038;SDS011;10678;51.002;4.786;2023-02-15T12:30:22;31.48;;;18.95;;
21038;SDS011;10678;51.002;4.786;2023-02-15T12:33:17;29.45;;;18.73;;
21038;SDS011;10678;51.002;4.786;2023-02-15T12:35:59;31.88;;;19.33;;
21038;SDS011;10678;51.002;4.786;2023-02-15T12:38:33;31.05;;;18.48;;
21038;SDS011;10678;51.002;4.786;2023-02-15T12:49:02;35.08;;;18.70;;
21038;SDS011;10678;51.002;4.786;2023-02-15T12:51:51;29.50;;;17.77;;
21038;SDS011;10678;51.002;4.786;2023-02-15T12:56:55;33.40;;;17.35;;
21038;SDS011;10678;51.002;4.786;2023-02-15T12:59:22;31.30;;;18.52;;
21038;SDS011;10678;51.002;4.786;2023-02-15T13:01:49;29.88;;;17.30;;
21038;SDS011;10678;51.002;4.786;2023-02-15T13:06:53;31.80;;;17.63;;
21038;SDS011;10678;51.002;4.786;2023-02-15T13:11:57;29.50;;;16.33;;
21038;SDS011;10678;51.002;4.786;2023-02-15T13:14:35;30.67;;;17.17;;
21038;SDS011;10678;51.002;4.786;2023-02-15T13:17:03;33.22;;;18.75;;
21038;SDS011;10678;51.002;4.786;2023-02-15T13:19:51;37.25;;;18.15;;
21038;SDS011;10678;51.002;4.786;2023-02-15T13:22:19;33.25;;;18.15;;
21038;SDS011;10678;51.002;4.786;2023-02-15T13:25:09;44.08;;;18.00;;
21038;SDS011;10678;51.002;4.786;2023-02-15T13:27:39;37.10;;;18.60;;
21038;SDS011;10678;51.002;4.786;2023-02-15T13:30:19;32.88;;;17.58;;
21038;SDS011;10678;51.002;4.786;2023-02-15T13:32:46;35.42;;;18.70;;
21038;SDS011;10678;51.002;4.786;2023-02-15T13:35:16;34.58;;;18.15;;
21038;SDS011;10678;51.002;4.786;2023-02-15T13:40:41;38.47;;;19.27;;
21038;SDS011;10678;51.002;4.786;2023-02-15T13:48:58;32.03;;;18.25;;
21038;SDS011;10678;51.002;4.786;2023-02-15T14:05:12;33.05;;;18.33;;
21038;SDS011;10678;51.002;4.786;2023-02-15T14:07:52;38.08;;;18.80;;
21038;SDS011;10678;51.002;4.786;2023-02-15T14:21:47;37.60;;;19.80;;
21038;SDS011;10678;51.002;4.786;2023-02-15T14:24:36;37.17;;;18.95;;
21038;SDS011;10678;51.002;4.786;2023-02-15T14:32:43;46.13;;;18.88;;
21038;SDS011;10678;51.002;4.786;2023-02-15T14:35:20;35.25;;;19.83;;
21038;SDS011;10678;51.002;4.786;2023-02-15T14:37:55;32.90;;;17.88;;
21038;SDS011;10678;51.002;4.786;2023-02-15T14:43:34;35.50;;;19.70;;
21038;SDS011;10678;51.002;4.786;2023-02-15T14:46:12;30.90;;;17.77;;
21038;SDS011;10678;51.002;4.786;2023-02-15T14:57:32;32.10;;;18.08;;
21038;SDS011;10678;51.002;4.786;2023-02-15T15:02:47;34.20;;;17.50;;
21038;SDS011;10678;51.002;4.786;2023-02-15T15:05:20;31.42;;;17.40;;
21038;SDS011;10678;51.002;4.786;2023-02-15T15:12:54;37.15;;;19.17;;
21038;SDS011;10678;51.002;4.786;2023-02-15T15:20:38;35.35;;;19.13;;
21038;SDS011;10678;51.002;4.786;2023-02-15T15:25:49;43.20;;;21.88;;
21038;SDS011;10678;51.002;4.786;2023-02-15T15:34:01;35.42;;;18.92;;
21038;SDS011;10678;51.002;4.786;2023-02-15T15:48:35;39.13;;;19.20;;
21038;SDS011;10678;51.002;4.786;2023-02-15T15:51:14;35.03;;;19.83;;
21038;SDS011;10678;51.002;4.786;2023-02-15T15:53:45;35.15;;;19.25;;
21038;SDS011;10678;51.002;4.786;2023-02-15T15:56:16;44.92;;;20.73;;
21038;SDS011;10678;51.002;4.786;2023-02-15T15:58:47;36.45;;;18.70;;
21038;SDS011;10678;51.002;4.786;2023-02-15T16:01:16;34.00;;;20.17;;
21038;SDS011;10678;51.002;4.786;2023-02-15T16:03:49;38.33;;;20.02;;
21038;SDS011;10678;51.002;4.786;2023-02-15T16:06:32;36.75;;;19.50;;
21038;SDS011;10678;51.002;4.786;2023-02-15T16:09:10;37.92;;;20.05;;
21038;SDS011;10678;51.002;4.786;2023-02-15T16:11:44;37.50;;;19.80;;
21038;SDS011;10678;51.002;4.786;2023-02-15T16:14:13;34.83;;;19.85;;
21038;SDS011;10678;51.002;4.786;2023-02-15T16:16:45;37.30;;;19.83;;
21038;SDS011;10678;51.002;4.786;2023-02-15T16:19:19;42.40;;;20.88;;
21038;SDS011;10678;51.002;4.786;2023-02-15T16:21:47;37.25;;;19.77;;
21038;SDS011;10678;51.002;4.786;2023-02-15T16:24:20;43.55;;;22.10;;
21038;SDS011;10678;51.002;4.786;2023-02-15T16:26:54;47.15;;;22.00;;
21038;SDS011;10678;51.002;4.786;2023-02-15T16:29:34;42.38;;;22.27;;
21038;SDS011;10678;51.002;4.786;2023-02-15T16:32:15;48.30;;;22.10;;
21038;SDS011;10678;51.002;4.786;2023-02-15T16:34:54;43.65;;;22.83;;
21038;SDS011;10678;51.002;4.786;2023-02-15T16:37:26;44.58;;;23.13;;
21038;SDS011;10678;51.002;4.786;2023-02-15T16:39:54;44.28;;;23.13;;
21038;SDS011;10678;51.002;4.786;2023-02-15T16:42:20;43.90;;;22.70;;
21038;SDS011;10678;51.002;4.786;2023-02-15T16:44:48;49.35;;;23.52;;
21038;SDS011;10678;51.002;4.786;2023-02-15T16:47:25;48.38;;;24.00;;
21038;SDS011;10678;51.002;4.786;2023-02-15T16:49:57;40.17;;;22.73;;
21038;SDS011;10678;51.002;4.786;2023-02-15T16:52:25;35.45;;;21.17;;
21038;SDS011;10678;51.002;4.786;2023-02-15T16:55:03;49.38;;;23.27;;
21038;SDS011;10678;51.002;4.786;2023-02-15T16:57:35;41.00;;;22.20;;
21038;SDS011;10678;51.002;4.786;2023-02-15T17:00:04;40.60;;;20.90;;
21038;SDS011;10678;51.002;4.786;2023-02-15T17:02:52;38.13;;;21.73;;
21038;SDS011;10678;51.002;4.786;2023-02-15T17:05:42;40.65;;;21.85;;
21038;SDS011;10678;51.002;4.786;2023-02-15T17:13:23;44.45;;;24.80;;
21038;SDS011;10678;51.002;4.786;2023-02-15T17:18:25;43.20;;;22.50;;
21038;SDS011;10678;51.002;4.786;2023-02-15T17:20:57;41.80;;;21.80;;
21038;SDS011;10678;51.002;4.786;2023-02-15T17:23:32;40.00;;;22.08;;
21038;SDS011;10678;51.002;4.786;2023-02-15T17:26:01;44.75;;;25.25;;
21038;SDS011;10678;51.002;4.786;2023-02-15T17:28:36;44.17;;;24.55;;
21038;SDS011;10678;51.002;4.786;2023-02-15T17:31:02;48.92;;;25.08;;
21038;SDS011;10678;51.002;4.786;2023-02-15T17:36:07;47.55;;;22.60;;
21038;SDS011;10678;51.002;4.786;2023-02-15T17:38:34;45.97;;;22.48;;
21038;SDS011;10678;51.002;4.786;2023-02-15T17:41:02;39.85;;;22.70;;
21038;SDS011;10678;51.002;4.786;2023-02-15T17:43:27;51.97;;;23.80;;
21038;SDS011;10678;51.002;4.786;2023-02-15T17:45:53;44.47;;;21.67;;
21038;SDS011;10678;51.002;4.786;2023-02-15T17:48:25;40.47;;;21.42;;
21038;SDS011;10678;51.002;4.786;2023-02-15T17:51:02;39.83;;;22.00;;
21038;SDS011;10678;51.002;4.786;2023-02-15T17:53:29;46.03;;;24.17;;
21038;SDS011;10678;51.002;4.786;2023-02-15T17:55:55;41.28;;;23.67;;
21038;SDS011;10678;51.002;4.786;2023-02-15T17:58:21;42.78;;;22.67;;
21038;SDS011;10678;51.002;4.786;2023-02-15T18:00:48;46.20;;;22.70;;
21038;SDS011;10678;51.002;4.786;2023-02-15T18:06:27;43.22;;;23.48;;
21038;SDS011;10678;51.002;4.786;2023-02-15T18:09:15;43.05;;;23.83;;